Time;durP1;ratioP1;P1;durP2;ratioP2;P2;SDS_P1;SDS_P2;PMS_P1;PMS_P2;Temp;Humidity;BMP_temperature;BMP_pressure;BME280_temperature;BME280_humidity;BME280_pressure;Samples;Min_cycle;Max_cycle;Signal;HPM_P1;HPM_P2
2023/06/06 00:01:10;;;;;;;;;12.50;11.25;;;;;;;;1980426;28;1823269;-74
2023/06/06 00:02:21;;;;;;;;;7.50;7.50;;;;;;;;1988308;28;2737735;-73
2023/06/06 00:03:31;;;;;;;;;14.00;9.00;;;;;;;;1977601;28;2766955;-74
2023/06/06 00:04:45;;;;;;;;;11.33;9.67;;;;;;;;1978546;28;3496545;-74
2023/06/06 00:05:59;;;;;;;;;12.33;8.33;;;;;;;;1983161;28;2764808;-73
2023/06/06 00:07:12;;;;;;;;;10.00;8.00;;;;;;;;1984469;28;2761700;-74
2023/06/06 00:08:28;;;;;;;;;14.14;10.00;;;;;;;;2000715;28;1818992;-73
2023/06/06 00:09:38;;;;;;;;;7.00;6.00;;;;;;;;1995166;28;2746177;-73
2023/06/06 00:10:49;;;;;;;;;8.67;8.00;;;;;;;;2010933;28;3470422;-73
2023/06/06 00:12:04;;;;;;;;;13.40;9.60;;;;;;;;2008381;28;1821195;-74
2023/06/06 00:13:15;;;;;;;;;10.00;8.00;;;;;;;;1968784;28;2753366;-74
2023/06/06 00:14:31;;;;;;;;;10.00;9.00;;;;;;;;1987618;28;1842556;-74
2023/06/06 00:15:44;;;;;;;;;8.25;6.00;;;;;;;;1994109;28;1817030;-74
2023/06/06 00:16:58;;;;;;;;;11.83;11.17;;;;;;;;2016924;28;1827488;-74
2023/06/06 00:18:08;;;;;;;;;15.50;10.50;;;;;;;;1961754;28;2798174;-74
2023/06/06 00:19:20;;;;;;;;;15.00;10.50;;;;;;;;1966902;28;2785642;-74
2023/06/06 00:20:35;;;;;;;;;9.50;8.83;;;;;;;;1983383;28;2763830;-74
2023/06/06 00:21:46;;;;;;;;;11.00;11.00;;;;;;;;1951008;28;2783554;-73
2023/06/06 00:22:57;;;;;;;;;10.50;8.00;;;;;;;;1976384;28;1821137;-74
2023/06/06 00:24:11;;;;;;;;;12.67;9.00;;;;;;;;2000761;28;1824331;-74
2023/06/06 00:25:21;;;;;;;;;8.50;7.00;;;;;;;;1965509;28;2735719;-73
2023/06/06 00:26:32;;;;;;;;;8.00;8.00;;;;;;;;2004541;28;2762760;-73
2023/06/06 00:27:43;;;;;;;;;11.25;10.25;;;;;;;;2014088;28;1821136;-73
2023/06/06 00:28:53;;;;;;;;;10.50;10.00;;;;;;;;1995951;28;2773173;-73
2023/06/06 00:30:05;;;;;;;;;10.00;9.50;;;;;;;;1993400;28;2767941;-73
2023/06/06 00:31:16;;;;;;;;;10.50;9.50;;;;;;;;1990481;28;2763801;-73
2023/06/06 00:32:27;;;;;;;;;8.25;8.00;;;;;;;;1993612;28;1820034;-73
2023/06/06 00:33:37;;;;;;;;;11.00;10.00;;;;;;;;1975775;28;2776266;-73
2023/06/06 00:34:48;;;;;;;;;13.00;10.00;;;;;;;;1978511;28;2786718;-73
2023/06/06 00:36:00;;;;;;;;;13.17;10.50;;;;;;;;2017289;28;2786757;-74
2023/06/06 00:37:11;;;;;;;;;14.00;12.00;;;;;;;;1987040;28;2795531;-74
2023/06/06 00:38:22;;;;;;;;;11.00;10.00;;;;;;;;2003606;28;2787783;-73
2023/06/06 00:39:34;;;;;;;;;13.40;11.20;;;;;;;;2013219;28;2789892;-74
2023/06/06 00:40:44;;;;;;;;;13.00;10.00;;;;;;;;1996353;28;2779430;-73
2023/06/06 00:41:55;;;;;;;;;11.00;10.50;;;;;;;;2000948;28;2788806;-74
2023/06/06 00:43:06;;;;;;;;;12.00;11.00;;;;;;;;2011154;28;2780524;-74
2023/06/06 00:44:18;;;;;;;;;9.50;8.00;;;;;;;;1984825;28;2749187;-74
2023/06/06 00:45:28;;;;;;;;;11.00;9.50;;;;;;;;1969072;28;2773174;-73
2023/06/06 00:46:39;;;;;;;;;11.00;10.00;;;;;;;;1971489;28;2768991;-73
2023/06/06 00:47:50;;;;;;;;;13.00;11.50;;;;;;;;2012703;28;1821138;-74
2023/06/06 00:49:00;;;;;;;;;9.00;7.50;;;;;;;;1990160;28;2745069;-73
2023/06/06 00:50:12;;;;;;;;;6.67;5.00;;;;;;;;2007582;28;3461675;-73
2023/06/06 00:51:23;;;;;;;;;12.00;9.67;;;;;;;;1983685;28;3499221;-73
2023/06/06 00:52:35;;;;;;;;;18.00;12.67;;;;;;;;1978553;28;2822227;-73
2023/06/06 00:53:46;;;;;;;;;11.00;8.00;;;;;;;;1986949;28;2763822;-74
2023/06/06 00:54:58;;;;;;;;;11.50;10.33;;;;;;;;2016878;28;2789827;-74
2023/06/06 00:56:09;;;;;;;;;18.50;10.00;;;;;;;;1992014;28;2805443;-73
2023/06/06 00:57:20;;;;;;;;;13.00;11.50;;;;;;;;1967292;28;2785711;-73
2023/06/06 00:58:32;;;;;;;;;13.00;10.80;;;;;;;;1992052;28;1829484;-73
2023/06/06 00:59:44;;;;;;;;;12.33;10.33;;;;;;;;1979341;28;2787780;-73
2023/06/06 01:00:54;;;;;;;;;11.00;10.00;;;;;;;;1984416;28;2792364;-73
2023/06/06 01:02:09;;;;;;;;;13.50;11.00;;;;;;;;1961169;28;2794504;-73
2023/06/06 01:03:24;;;;;;;;;14.00;9.33;;;;;;;;1953159;28;2771078;-73
2023/06/06 01:04:39;;;;;;;;;14.20;12.20;;;;;;;;2008384;28;2777332;-73
2023/06/06 01:05:55;;;;;;;;;11.00;11.00;;;;;;;;1990524;28;2786690;-73
2023/06/06 01:07:16;;;;;;;;;17.00;12.00;;;;;;;;1959420;28;2803421;-73
2023/06/06 01:08:30;;;;;;;;;12.50;12.33;;;;;;;;1988881;28;1821121;-73
2023/06/06 01:09:41;;;;;;;;;12.00;11.00;;;;;;;;1973501;28;2794081;-73
2023/06/06 01:10:55;;;;;;;;;14.50;13.00;;;;;;;;2006334;28;2798211;-73
2023/06/06 01:12:15;;;;;;;;;15.33;13.83;;;;;;;;1988578;28;1827417;-73
2023/06/06 01:13:38;;;;;;;;;17.50;12.00;;;;;;;;1956692;28;2805479;-73
2023/06/06 01:14:48;;;;;;;;;17.00;13.50;;;;;;;;1956863;28;2800306;-74
2023/06/06 01:16:03;;;;;;;;;16.14;14.29;;;;;;;;1983405;28;2804772;-73
2023/06/06 01:17:17;;;;;;;;;13.00;12.00;;;;;;;;1987920;28;2798179;-73
2023/06/06 01:18:31;;;;;;;;;13.43;11.57;;;;;;;;1986411;28;1831516;-73
2023/06/06 01:19:49;;;;;;;;;14.83;11.83;;;;;;;;2016049;28;1833641;-74
2023/06/06 01:21:00;;;;;;;;;11.00;10.00;;;;;;;;1970014;28;2773165;-73
2023/06/06 01:22:13;;;;;;;;;11.50;11.50;;;;;;;;1972309;28;2791907;-74
2023/06/06 01:23:23;;;;;;;;;15.50;11.50;;;;;;;;1976008;28;2802327;-74
2023/06/06 01:24:36;;;;;;;;;14.60;12.20;;;;;;;;1990332;28;1829531;-73
2023/06/06 01:25:47;;;;;;;;;11.50;10.00;;;;;;;;1969768;28;2775252;-73
2023/06/06 01:27:03;;;;;;;;;14.33;9.17;;;;;;;;1999630;28;1832333;-73
2023/06/06 01:28:15;;;;;;;;;13.00;10.00;;;;;;;;1954488;28;2789831;-73
2023/06/06 01:29:26;;;;;;;;;19.67;16.00;;;;;;;;1962620;28;2820174;-73
2023/06/06 01:30:36;;;;;;;;;15.00;11.50;;;;;;;;1994211;28;2791923;-73
2023/06/06 01:32:01;;;;;;;;;16.50;8.00;;;;;;;;2015738;28;2785681;-73
2023/06/06 01:33:23;;;;;;;;;12.67;11.17;;;;;;;;2015105;28;1831575;-73
2023/06/06 01:34:57;;;;;;;;;13.17;10.83;;;;;;;;1993162;28;1824316;-73
2023/06/06 01:36:08;;;;;;;;;11.00;9.50;;;;;;;;1958581;28;2770033;-73
2023/06/06 01:37:40;;;;;;;;;14.00;11.00;;;;;;;;1982660;28;2809665;-73
2023/06/06 01:38:50;;;;;;;;;16.00;11.00;;;;;;;;1985419;28;2795130;-73
2023/06/06 01:40:07;;;;;;;;;12.00;11.00;;;;;;;;1986271;28;2789812;-73
2023/06/06 01:41:22;;;;;;;;;6.17;5.50;;;;;;;;1989318;28;2746107;-73
2023/06/06 01:42:37;;;;;;;;;12.00;11.00;;;;;;;;1960831;28;2794046;-73
2023/06/06 01:43:50;;;;;;;;;11.50;10.00;;;;;;;;1958630;28;2785194;-73
2023/06/06 01:45:00;;;;;;;;;18.00;12.00;;;;;;;;1962411;28;2802362;-73
2023/06/06 01:46:12;;;;;;;;;14.50;12.50;;;;;;;;1994363;28;1827323;-73
2023/06/06 01:47:23;;;;;;;;;13.00;11.00;;;;;;;;1965409;28;2780429;-73
2023/06/06 01:48:34;;;;;;;;;18.00;11.00;;;;;;;;1960546;28;2812782;-73
2023/06/06 01:49:45;;;;;;;;;11.50;10.00;;;;;;;;1973370;28;2778352;-73
2023/06/06 01:50:56;;;;;;;;;13.50;10.50;;;;;;;;2018111;28;1835748;-73
2023/06/06 01:52:08;;;;;;;;;19.20;11.80;;;;;;;;1979976;28;2806481;-73
2023/06/06 01:53:21;;;;;;;;;12.60;11.80;;;;;;;;1964186;28;3513800;-73
2023/06/06 01:54:35;;;;;;;;;13.43;11.71;;;;;;;;2008324;28;1821192;-73
2023/06/06 01:55:45;;;;;;;;;16.00;11.00;;;;;;;;1989425;28;2794032;-73
2023/06/06 01:56:56;;;;;;;;;12.75;11.25;;;;;;;;2021498;28;1820043;-73
2023/06/06 01:58:07;;;;;;;;;15.00;10.00;;;;;;;;1986609;28;2791934;-73
2023/06/06 01:59:17;;;;;;;;;11.75;11.25;;;;;;;;1996423;28;1830053;-74
2023/06/06 02:00:31;;;;;;;;;19.00;12.33;;;;;;;;1998244;28;1827337;-73
2023/06/06 02:01:44;;;;;;;;;14.00;9.83;;;;;;;;2008136;28;1831608;-73
2023/06/06 02:02:55;;;;;;;;;17.33;12.67;;;;;;;;1961730;28;2803404;-73
2023/06/06 02:04:07;;;;;;;;;16.80;14.20;;;;;;;;2007266;28;2804386;-74
2023/06/06 02:05:19;;;;;;;;;9.67;7.00;;;;;;;;1989841;28;1833645;-74
2023/06/06 02:06:32;;;;;;;;;16.33;12.33;;;;;;;;2016032;28;1833674;-73
2023/06/06 02:07:43;;;;;;;;;12.00;11.00;;;;;;;;1948215;28;2789840;-73
2023/06/06 02:08:55;;;;;;;;;13.14;10.71;;;;;;;;1978467;28;2799229;-73
2023/06/06 02:10:06;;;;;;;;;15.00;9.50;;;;;;;;1981863;28;2791911;-73
2023/06/06 02:11:17;;;;;;;;;9.00;7.00;;;;;;;;1990615;28;1814346;-73
2023/06/06 02:12:28;;;;;;;;;16.00;10.67;;;;;;;;1985460;28;2787716;-73
2023/06/06 02:13:41;;;;;;;;;12.17;11.33;;;;;;;;2015622;28;1829465;-74
2023/06/06 02:14:54;;;;;;;;;17.00;13.00;;;;;;;;1950157;28;2806521;-74
2023/06/06 02:16:05;;;;;;;;;18.00;14.67;;;;;;;;1948584;28;2820135;-74
2023/06/06 02:17:18;;;;;;;;;11.50;10.33;;;;;;;;2000462;28;1833679;-74
2023/06/06 02:18:29;;;;;;;;;14.00;9.00;;;;;;;;1960529;28;2774574;-74
2023/06/06 02:19:41;;;;;;;;;15.43;12.29;;;;;;;;1989208;28;2804390;-74
2023/06/06 02:20:52;;;;;;;;;18.00;12.50;;;;;;;;1989955;28;2814842;-74
2023/06/06 02:22:03;;;;;;;;;19.00;13.50;;;;;;;;1989046;28;2811690;-74
2023/06/06 02:23:14;;;;;;;;;10.25;8.75;;;;;;;;1992455;28;1821116;-74
2023/06/06 02:24:27;;;;;;;;;14.00;10.83;;;;;;;;2019308;28;1827378;-74
2023/06/06 02:25:37;;;;;;;;;18.00;16.00;;;;;;;;1967551;28;2802338;-74
2023/06/06 02:26:52;;;;;;;;;15.00;14.71;;;;;;;;2015796;28;2813777;-74
2023/06/06 02:28:03;;;;;;;;;14.00;12.50;;;;;;;;1983125;28;2789320;-73
2023/06/06 02:29:14;;;;;;;;;15.00;11.00;;;;;;;;1948460;28;2796117;-74
2023/06/06 02:30:26;;;;;;;;;15.33;14.00;;;;;;;;1969736;28;2810768;-73
2023/06/06 02:31:37;;;;;;;;;15.00;13.00;;;;;;;;1981227;28;2796121;-74
2023/06/06 02:32:50;;;;;;;;;10.50;4.75;;;;;;;;1973458;28;1835767;-73
2023/06/06 02:34:04;;;;;;;;;18.86;13.57;;;;;;;;2007069;28;1839915;-73
2023/06/06 02:35:20;;;;;;;;;15.50;12.67;;;;;;;;2006496;28;1833676;-73
2023/06/06 02:36:31;;;;;;;;;16.00;12.00;;;;;;;;1960348;28;2801318;-74
2023/06/06 02:37:42;;;;;;;;;18.00;16.67;;;;;;;;1981670;28;2808113;-73
2023/06/06 02:38:54;;;;;;;;;22.67;17.33;;;;;;;;1981367;28;3562736;-73
2023/06/06 02:40:10;;;;;;;;;18.29;11.71;;;;;;;;1999469;28;2817318;-73
2023/06/06 02:41:20;;;;;;;;;14.00;10.00;;;;;;;;1985141;28;2790865;-73
2023/06/06 02:42:33;;;;;;;;;18.71;16.00;;;;;;;;1977970;28;3557505;-73
2023/06/06 02:43:46;;;;;;;;;17.86;14.00;;;;;;;;1998737;28;3551263;-73
2023/06/06 02:44:58;;;;;;;;;20.60;15.20;;;;;;;;2013607;28;3556462;-73
2023/06/06 02:46:10;;;;;;;;;19.43;14.71;;;;;;;;2009241;28;2815979;-73
2023/06/06 02:47:21;;;;;;;;;13.00;12.00;;;;;;;;1977814;28;2795044;-73
2023/06/06 02:48:32;;;;;;;;;18.50;12.50;;;;;;;;1986396;28;2811745;-73
2023/06/06 02:49:43;;;;;;;;;16.00;10.00;;;;;;;;1992304;28;2808561;-73
2023/06/06 02:50:56;;;;;;;;;13.71;11.57;;;;;;;;1992953;28;2802303;-74
2023/06/06 02:52:10;;;;;;;;;18.57;15.71;;;;;;;;2020028;28;1837895;-73
2023/06/06 02:53:23;;;;;;;;;15.67;10.83;;;;;;;;2013538;28;1828522;-73
2023/06/06 02:54:34;;;;;;;;;21.00;15.00;;;;;;;;1961706;28;2819013;-73
2023/06/06 02:55:46;;;;;;;;;18.86;15.71;;;;;;;;1982706;28;3552293;-73
2023/06/06 02:57:01;;;;;;;;;18.00;12.86;;;;;;;;2005893;28;3542941;-73
2023/06/06 02:58:28;;;;;;;;;17.33;12.67;;;;;;;;1984659;28;2801381;-74
2023/06/06 02:59:38;;;;;;;;;17.00;13.50;;;;;;;;1993551;28;2805463;-73
2023/06/06 03:00:51;;;;;;;;;17.86;13.86;;;;;;;;2011811;28;2814802;-73
2023/06/06 03:02:03;;;;;;;;;16.33;11.00;;;;;;;;1990898;28;2794021;-73
2023/06/06 03:03:15;;;;;;;;;19.60;16.60;;;;;;;;1989441;28;2807551;-73
2023/06/06 03:04:26;;;;;;;;;15.50;11.75;;;;;;;;1985337;28;1828506;-73
2023/06/06 03:05:39;;;;;;;;;19.67;12.00;;;;;;;;1976468;28;3552328;-73
2023/06/06 03:06:50;;;;;;;;;16.67;15.33;;;;;;;;1991389;28;2804421;-73
2023/06/06 03:08:02;;;;;;;;;22.67;19.00;;;;;;;;1990533;28;3566891;-73
2023/06/06 03:09:13;;;;;;;;;16.20;14.00;;;;;;;;2007523;28;3511666;-73
2023/06/06 03:10:25;;;;;;;;;15.80;13.20;;;;;;;;2018223;28;3528339;-73
2023/06/06 03:11:37;;;;;;;;;17.00;14.00;;;;;;;;2020953;28;3535667;-73
2023/06/06 03:12:50;;;;;;;;;22.00;15.00;;;;;;;;2024761;28;2816878;-73
2023/06/06 03:14:01;;;;;;;;;17.00;15.00;;;;;;;;1989107;28;2801290;-73
2023/06/06 03:15:13;;;;;;;;;17.33;15.33;;;;;;;;1969723;28;3543945;-74
2023/06/06 03:16:26;;;;;;;;;16.25;13.50;;;;;;;;2020858;28;1828416;-73
2023/06/06 03:17:40;;;;;;;;;14.67;12.33;;;;;;;;1992873;28;3524159;-73
2023/06/06 03:18:51;;;;;;;;;21.00;17.00;;;;;;;;1992861;28;3554423;-73
2023/06/06 03:20:06;;;;;;;;;19.33;15.00;;;;;;;;2005056;28;2825354;-73
2023/06/06 03:21:17;;;;;;;;;18.50;15.00;;;;;;;;1994847;28;2816925;-73
2023/06/06 03:22:30;;;;;;;;;16.00;13.29;;;;;;;;1984359;28;3530406;-73
2023/06/06 03:23:41;;;;;;;;;19.40;15.80;;;;;;;;2010437;28;3541855;-73
2023/06/06 03:24:56;;;;;;;;;17.43;15.00;;;;;;;;2005826;28;3518984;-73
2023/06/06 03:26:06;;;;;;;;;18.00;16.00;;;;;;;;1991716;28;2828406;-73
2023/06/06 03:27:18;;;;;;;;;21.60;17.20;;;;;;;;1985016;28;3564789;-73
2023/06/06 03:28:31;;;;;;;;;17.25;14.00;;;;;;;;2005011;28;1822170;-73
2023/06/06 03:29:43;;;;;;;;;20.33;16.00;;;;;;;;1977893;28;3563786;-73
2023/06/06 03:30:55;;;;;;;;;18.86;14.29;;;;;;;;2007298;28;3551298;-73
2023/06/06 03:32:08;;;;;;;;;17.29;15.71;;;;;;;;2015324;28;3558566;-73
2023/06/06 03:33:21;;;;;;;;;20.14;14.14;;;;;;;;2004136;28;3536687;-73
2023/06/06 03:34:32;;;;;;;;;13.50;13.50;;;;;;;;2004555;28;2796108;-73
2023/06/06 03:35:45;;;;;;;;;19.14;15.00;;;;;;;;1986756;28;3551240;-73
2023/06/06 03:36:58;;;;;;;;;18.00;16.60;;;;;;;;2017534;28;3555397;-73
2023/06/06 03:38:09;;;;;;;;;20.00;15.00;;;;;;;;1990931;28;2807670;-73
2023/06/06 03:39:20;;;;;;;;;20.00;15.00;;;;;;;;1990358;28;2812855;-73
2023/06/06 03:40:30;;;;;;;;;19.50;17.00;;;;;;;;1993040;28;2850254;-73
2023/06/06 03:41:42;;;;;;;;;25.40;16.20;;;;;;;;1996654;28;3581502;-74
2023/06/06 03:42:55;;;;;;;;;19.29;16.57;;;;;;;;2005970;28;3554893;-73
2023/06/06 03:44:07;;;;;;;;;19.20;15.60;;;;;;;;2001697;28;3540838;-73
2023/06/06 03:45:21;;;;;;;;;15.86;13.86;;;;;;;;2000256;28;3533635;-73
2023/06/06 03:46:34;;;;;;;;;23.33;18.67;;;;;;;;1976198;28;3589827;-73
2023/06/06 03:47:45;;;;;;;;;20.00;17.00;;;;;;;;1982765;28;3564836;-73
2023/06/06 03:48:58;;;;;;;;;23.14;15.43;;;;;;;;2015802;28;3570013;-73
2023/06/06 03:50:11;;;;;;;;;20.57;17.86;;;;;;;;2004421;28;3560705;-73
2023/06/06 03:51:22;;;;;;;;;26.00;15.50;;;;;;;;1978914;28;2829413;-73
2023/06/06 03:52:34;;;;;;;;;20.86;15.14;;;;;;;;1985549;28;3568943;-73
2023/06/06 03:53:47;;;;;;;;;21.29;17.29;;;;;;;;2006246;28;3565881;-73
2023/06/06 03:54:59;;;;;;;;;21.40;18.20;;;;;;;;2011121;28;3559572;-73
2023/06/06 03:56:12;;;;;;;;;24.00;18.71;;;;;;;;2013940;28;3573146;-73
2023/06/06 03:57:24;;;;;;;;;16.40;15.00;;;;;;;;2020917;28;3533540;-73
2023/06/06 03:58:36;;;;;;;;;18.00;16.33;;;;;;;;2005306;28;3550234;-73
2023/06/06 03:59:49;;;;;;;;;18.33;17.00;;;;;;;;2002571;28;3562729;-73
2023/06/06 04:01:01;;;;;;;;;18.00;12.50;;;;;;;;1984530;28;2800759;-73
2023/06/06 04:02:11;;;;;;;;;21.00;17.00;;;;;;;;1959588;28;2831512;-73
2023/06/06 04:03:23;;;;;;;;;18.20;15.40;;;;;;;;2001978;28;2821199;-73
2023/06/06 04:04:36;;;;;;;;;20.67;19.33;;;;;;;;1984609;28;3561718;-73
2023/06/06 04:05:48;;;;;;;;;21.50;19.00;;;;;;;;1991032;28;2825254;-73
2023/06/06 04:06:59;;;;;;;;;19.67;17.00;;;;;;;;1992517;28;2810809;-73
2023/06/06 04:08:10;;;;;;;;;18.00;15.00;;;;;;;;1990154;28;2819012;-73
2023/06/06 04:09:21;;;;;;;;;21.00;15.50;;;;;;;;1985709;28;2826303;-73
2023/06/06 04:10:33;;;;;;;;;20.20;16.00;;;;;;;;1989555;28;3563803;-73
2023/06/06 04:11:44;;;;;;;;;16.80;14.40;;;;;;;;2006978;28;3539797;-73
2023/06/06 04:12:56;;;;;;;;;25.60;20.40;;;;;;;;2002926;28;3566899;-73
2023/06/06 04:14:09;;;;;;;;;22.80;18.40;;;;;;;;1999547;28;3564097;-73
2023/06/06 04:15:21;;;;;;;;;20.33;18.00;;;;;;;;1990552;28;3550241;-73
2023/06/06 04:16:33;;;;;;;;;18.00;13.71;;;;;;;;2007544;28;3536697;-73
2023/06/06 04:17:45;;;;;;;;;23.80;19.20;;;;;;;;2016432;28;3560614;-72
2023/06/06 04:18:58;;;;;;;;;17.43;15.71;;;;;;;;2007347;28;3548156;-73
2023/06/06 04:20:11;;;;;;;;;23.71;19.29;;;;;;;;2001355;28;3572115;-73
2023/06/06 04:21:23;;;;;;;;;23.00;18.80;;;;;;;;1967341;28;3573178;-73
2023/06/06 04:22:36;;;;;;;;;22.20;19.80;;;;;;;;2004415;28;3570049;-73
2023/06/06 04:23:47;;;;;;;;;18.33;16.33;;;;;;;;1974856;28;3536704;-73
2023/06/06 04:24:59;;;;;;;;;23.20;17.20;;;;;;;;1994681;28;3569438;-73
2023/06/06 04:26:21;;;;;;;;;25.00;20.20;;;;;;;;1998302;28;3573142;-73
2023/06/06 04:27:31;;;;;;;;;21.00;19.00;;;;;;;;1979174;28;2835695;-73
2023/06/06 04:28:48;;;;;;;;;24.40;17.20;;;;;;;;1985337;28;3575224;-73
2023/06/06 04:29:59;;;;;;;;;28.50;19.50;;;;;;;;1981316;28;2852345;-73
2023/06/06 04:31:11;;;;;;;;;12.00;8.50;;;;;;;;1953158;28;2759648;-73
2023/06/06 04:32:21;;;;;;;;;24.50;20.00;;;;;;;;1985133;28;2833592;-72
2023/06/06 04:33:34;;;;;;;;;23.14;18.57;;;;;;;;1984827;28;3571057;-73
2023/06/06 04:34:46;;;;;;;;;23.00;18.80;;;;;;;;1997503;28;3563739;-73
2023/06/06 04:36:00;;;;;;;;;22.00;20.40;;;;;;;;1996111;28;3567925;-73
2023/06/06 04:37:13;;;;;;;;;24.33;20.67;;;;;;;;1986845;28;2836008;-73
2023/06/06 04:38:25;;;;;;;;;27.00;18.33;;;;;;;;1986564;28;2845078;-73
2023/06/06 04:39:36;;;;;;;;;28.50;22.00;;;;;;;;1983005;28;2843997;-73
2023/06/06 04:40:50;;;;;;;;;26.60;19.00;;;;;;;;1971244;28;3574227;-74
2023/06/06 04:42:02;;;;;;;;;22.67;19.33;;;;;;;;1991989;28;2836688;-73
2023/06/06 04:43:17;;;;;;;;;27.67;21.00;;;;;;;;1983992;28;3579360;-73
2023/06/06 04:44:27;;;;;;;;;27.50;20.00;;;;;;;;1985483;28;2836040;-73
2023/06/06 04:45:39;;;;;;;;;23.20;19.80;;;;;;;;1975713;28;3564839;-73
2023/06/06 04:47:01;;;;;;;;;23.60;19.80;;;;;;;;2003589;28;3573109;-74
2023/06/06 04:48:12;;;;;;;;;21.00;18.00;;;;;;;;1977261;28;2835694;-73
2023/06/06 04:49:25;;;;;;;;;25.33;22.33;;;;;;;;1952667;28;3576334;-74
2023/06/06 04:50:35;;;;;;;;;26.50;21.50;;;;;;;;1958527;28;2841940;-73
2023/06/06 04:51:47;;;;;;;;;24.67;23.33;;;;;;;;1968483;28;3571061;-73
2023/06/06 04:52:59;;;;;;;;;25.80;21.20;;;;;;;;2013308;28;3583522;-73
2023/06/06 04:54:12;;;;;;;;;24.57;18.14;;;;;;;;1978405;28;3577319;-73
2023/06/06 04:55:26;;;;;;;;;21.50;18.00;;;;;;;;1960066;28;2825254;-73
2023/06/06 04:56:39;;;;;;;;;29.00;23.50;;;;;;;;1959568;28;2848198;-73
2023/06/06 04:57:50;;;;;;;;;24.00;22.00;;;;;;;;1969052;28;2835662;-73
2023/06/06 04:59:06;;;;;;;;;28.00;25.40;;;;;;;;1989769;28;3577289;-74
2023/06/06 05:00:17;;;;;;;;;29.00;20.50;;;;;;;;1985732;28;2847193;-73
2023/06/06 05:01:30;;;;;;;;;31.20;27.60;;;;;;;;1967439;28;3582552;-73
2023/06/06 05:02:40;;;;;;;;;29.00;22.00;;;;;;;;1974036;28;2850217;-73
2023/06/06 05:03:52;;;;;;;;;25.20;22.00;;;;;;;;1984304;28;3570327;-73
2023/06/06 05:05:04;;;;;;;;;28.60;25.20;;;;;;;;2016494;28;3577274;-73
2023/06/06 05:06:16;;;;;;;;;27.80;23.00;;;;;;;;1980970;28;3578480;-73
2023/06/06 05:07:29;;;;;;;;;30.80;27.40;;;;;;;;1985885;28;3601256;-73
2023/06/06 05:08:46;;;;;;;;;19.00;17.60;;;;;;;;1970149;28;3557481;-73
2023/06/06 05:09:58;;;;;;;;;26.67;25.00;;;;;;;;1969282;28;3581565;-73
2023/06/06 05:11:13;;;;;;;;;30.60;28.80;;;;;;;;1980312;28;3576230;-73
2023/06/06 05:12:24;;;;;;;;;25.67;21.00;;;;;;;;1955051;28;3585695;-73
2023/06/06 05:13:36;;;;;;;;;32.80;30.20;;;;;;;;1972460;28;3577639;-73
2023/06/06 05:14:48;;;;;;;;;30.00;25.00;;;;;;;;1974982;28;3587735;-73
2023/06/06 05:16:00;;;;;;;;;31.40;23.80;;;;;;;;1971479;28;3587756;-74
2023/06/06 05:17:17;;;;;;;;;33.60;28.80;;;;;;;;1979460;28;3589851;-73
2023/06/06 05:18:29;;;;;;;;;27.00;21.50;;;;;;;;1955452;28;2836705;-73
2023/06/06 05:19:41;;;;;;;;;22.00;22.00;;;;;;;;1956448;28;2835663;-74
2023/06/06 05:20:52;;;;;;;;;26.50;20.00;;;;;;;;1961362;28;2840871;-74
2023/06/06 05:22:04;;;;;;;;;32.20;26.60;;;;;;;;1968380;28;3584033;-74
2023/06/06 05:23:15;;;;;;;;;29.00;27.33;;;;;;;;1987357;28;3582529;-74
2023/06/06 05:24:27;;;;;;;;;29.80;24.20;;;;;;;;1963458;28;3590488;-74
2023/06/06 05:25:39;;;;;;;;;29.40;25.80;;;;;;;;1976090;28;3577299;-74
2023/06/06 05:26:51;;;;;;;;;30.80;25.20;;;;;;;;1979792;28;3591941;-74
2023/06/06 05:28:03;;;;;;;;;29.60;24.00;;;;;;;;1980076;28;3586646;-74
2023/06/06 05:29:15;;;;;;;;;29.80;21.60;;;;;;;;1986886;28;3587723;-74
2023/06/06 05:30:27;;;;;;;;;32.80;27.60;;;;;;;;1970782;28;3578797;-74
2023/06/06 05:31:39;;;;;;;;;32.40;29.20;;;;;;;;1983866;28;3568949;-74
2023/06/06 05:32:52;;;;;;;;;31.57;26.57;;;;;;;;2008502;28;3600240;-75
2023/06/06 05:34:04;;;;;;;;;26.67;21.33;;;;;;;;1974525;28;3587773;-74
2023/06/06 05:35:16;;;;;;;;;30.80;23.40;;;;;;;;1980236;28;3587760;-74
2023/06/06 05:36:28;;;;;;;;;35.60;30.20;;;;;;;;1976185;28;3590841;-75
2023/06/06 05:37:41;;;;;;;;;37.67;26.33;;;;;;;;1968538;28;3597123;-74
2023/06/06 05:38:52;;;;;;;;;29.00;28.00;;;;;;;;1956976;28;2846129;-74
2023/06/06 05:40:04;;;;;;;;;25.00;22.33;;;;;;;;1968747;28;3575190;-74
2023/06/06 05:41:15;;;;;;;;;30.20;24.60;;;;;;;;1995079;28;3588750;-74
2023/06/06 05:42:27;;;;;;;;;36.80;28.20;;;;;;;;1984801;28;3589784;-74
2023/06/06 05:43:39;;;;;;;;;37.80;27.00;;;;;;;;1978245;28;3614910;-74
2023/06/06 05:44:53;;;;;;;;;33.38;25.13;;;;;;;;1960418;28;3596089;-74
2023/06/06 05:46:03;;;;;;;;;30.00;28.00;;;;;;;;1968376;28;2857537;-74
2023/06/06 05:47:15;;;;;;;;;32.40;28.00;;;;;;;;1973667;28;3600248;-74
2023/06/06 05:48:27;;;;;;;;;38.60;31.20;;;;;;;;2009983;28;3620042;-74
2023/06/06 05:49:39;;;;;;;;;37.67;30.67;;;;;;;;1971740;28;3620054;-74
2023/06/06 05:50:51;;;;;;;;;35.20;30.80;;;;;;;;1991845;28;3593966;-73
2023/06/06 05:52:04;;;;;;;;;34.60;26.20;;;;;;;;1978155;28;3613722;-74
2023/06/06 05:53:15;;;;;;;;;32.00;25.67;;;;;;;;1946971;28;3606489;-73
2023/06/06 05:54:27;;;;;;;;;25.40;17.00;;;;;;;;1980881;28;3580778;-75
2023/06/06 05:55:38;;;;;;;;;33.00;30.00;;;;;;;;1979013;28;2860709;-74
2023/06/06 05:56:50;;;;;;;;;32.60;25.40;;;;;;;;1960064;28;2841987;-74
2023/06/06 05:58:01;;;;;;;;;34.50;29.00;;;;;;;;1964363;28;2858548;-74
2023/06/06 05:59:13;;;;;;;;;33.33;28.33;;;;;;;;1950012;28;3588785;-75
2023/06/06 06:00:25;;;;;;;;;34.40;29.20;;;;;;;;1972915;28;3600272;-74
2023/06/06 06:01:39;;;;;;;;;35.00;29.50;;;;;;;;1962369;28;2861739;-74
2023/06/06 06:02:51;;;;;;;;;29.00;27.00;;;;;;;;1962210;28;2845029;-74
2023/06/06 06:04:02;;;;;;;;;35.00;31.00;;;;;;;;1954355;28;2853343;-74
2023/06/06 06:05:13;;;;;;;;;25.60;23.60;;;;;;;;1974329;28;3581465;-74
2023/06/06 06:06:26;;;;;;;;;38.60;32.40;;;;;;;;2000261;28;3609694;-74
2023/06/06 06:07:38;;;;;;;;;31.50;26.00;;;;;;;;1953627;28;2842951;-74
2023/06/06 06:08:49;;;;;;;;;28.00;21.50;;;;;;;;1962783;28;2839861;-74
2023/06/06 06:10:02;;;;;;;;;40.67;29.67;;;;;;;;1951343;28;2874240;-74
2023/06/06 06:11:13;;;;;;;;;37.50;31.00;;;;;;;;1982060;28;2866879;-74
2023/06/06 06:12:23;;;;;;;;;36.00;29.50;;;;;;;;1963515;28;2864829;-74
2023/06/06 06:13:36;;;;;;;;;39.60;31.80;;;;;;;;1986197;28;3617935;-74
2023/06/06 06:14:47;;;;;;;;;37.60;32.40;;;;;;;;1970913;28;3602334;-74
2023/06/06 06:15:59;;;;;;;;;35.60;30.00;;;;;;;;1977509;28;3604989;-74
2023/06/06 06:17:11;;;;;;;;;42.20;32.40;;;;;;;;1980447;28;3593977;-75
2023/06/06 06:18:23;;;;;;;;;36.00;29.60;;;;;;;;1985746;28;3606462;-74
2023/06/06 06:19:35;;;;;;;;;35.60;28.20;;;;;;;;1986701;28;3610652;-74
2023/06/06 06:20:47;;;;;;;;;34.40;29.40;;;;;;;;1988085;28;3592933;-74
2023/06/06 06:21:59;;;;;;;;;32.40;29.00;;;;;;;;1979151;28;3586691;-74
2023/06/06 06:23:11;;;;;;;;;39.00;32.60;;;;;;;;1977187;28;3593941;-74
2023/06/06 06:24:23;;;;;;;;;38.33;33.33;;;;;;;;1974729;28;3599202;-75
2023/06/06 06:25:36;;;;;;;;;36.00;30.80;;;;;;;;1983458;28;3581802;-74
2023/06/06 06:26:48;;;;;;;;;34.33;26.00;;;;;;;;1943062;28;3578388;-74
2023/06/06 06:27:58;;;;;;;;;41.50;32.50;;;;;;;;1973286;28;2852908;-72
2023/06/06 06:29:10;;;;;;;;;37.67;30.33;;;;;;;;1967736;28;3608529;-74
2023/06/06 06:30:21;;;;;;;;;36.60;32.60;;;;;;;;1966933;28;2854516;-74
2023/06/06 06:31:32;;;;;;;;;34.40;30.60;;;;;;;;1977170;28;3590821;-74
2023/06/06 06:32:45;;;;;;;;;41.00;31.80;;;;;;;;1987438;28;3587677;-74
2023/06/06 06:33:56;;;;;;;;;33.20;26.00;;;;;;;;1954731;28;3597075;-74
2023/06/06 06:35:08;;;;;;;;;35.40;31.00;;;;;;;;1972073;28;3605425;-73
2023/06/06 06:36:21;;;;;;;;;42.00;33.20;;;;;;;;1968438;28;3579359;-74
2023/06/06 06:37:36;;;;;;;;;38.00;32.80;;;;;;;;1964347;28;3589780;-73
2023/06/06 06:38:46;;;;;;;;;44.50;29.50;;;;;;;;1955397;28;2883569;-73
2023/06/06 06:39:57;;;;;;;;;25.60;24.80;;;;;;;;1962818;28;2834672;-74
2023/06/06 06:41:08;;;;;;;;;37.00;31.50;;;;;;;;1979500;28;2852831;-74
2023/06/06 06:42:20;;;;;;;;;43.80;32.20;;;;;;;;1987462;28;3615843;-74
2023/06/06 06:43:32;;;;;;;;;41.00;32.60;;;;;;;;1975877;28;3599226;-74
2023/06/06 06:44:42;;;;;;;;;41.20;33.40;;;;;;;;1949171;28;2860686;-74
2023/06/06 06:45:54;;;;;;;;;40.80;33.60;;;;;;;;1977040;28;3592947;-74
2023/06/06 06:47:06;;;;;;;;;33.80;23.20;;;;;;;;2000287;28;3613156;-74
2023/06/06 06:48:18;;;;;;;;;44.80;30.60;;;;;;;;1976843;28;3625315;-74
2023/06/06 06:49:30;;;;;;;;;47.40;36.80;;;;;;;;1983696;28;3583610;-75
2023/06/06 06:50:42;;;;;;;;;37.20;32.40;;;;;;;;1976285;28;3582538;-75